sensor_id;sensor_type;location;lat;lon;timestamp;pressure;altitude;pressure_sealevel;temperature;humidity
77227;BME280;66234;47.642;19.144;2023-04-06T00:02:21;100504.03;;;-0.25;62.18
77227;BME280;66234;47.642;19.144;2023-04-06T00:05:24;100511.09;;;-0.26;62.63
77227;BME280;66234;47.642;19.144;2023-04-06T00:08:27;100514.38;;;-0.33;62.63
77227;BME280;66234;47.642;19.144;2023-04-06T00:11:30;100515.91;;;-0.31;63.56
77227;BME280;66234;47.642;19.144;2023-04-06T00:14:32;100508.72;;;-0.29;63.24
77227;BME280;66234;47.642;19.144;2023-04-06T00:17:35;100515.31;;;-0.44;63.41
77227;BME280;66234;47.642;19.144;2023-04-06T00:20:38;100505.59;;;-0.53;63.67
77227;BME280;66234;47.642;19.144;2023-04-06T00:23:41;100492.59;;;-0.54;64.22
77227;BME280;66234;47.642;19.144;2023-04-06T00:26:44;100496.03;;;-0.54;63.79
77227;BME280;66234;47.642;19.144;2023-04-06T00:29:46;100500.16;;;-0.61;63.70
77227;BME280;66234;47.642;19.144;2023-04-06T00:32:49;100504.56;;;-0.61;63.45
77227;BME280;66234;47.642;19.144;2023-04-06T00:35:52;100494.50;;;-0.56;64.24
77227;BME280;66234;47.642;19.144;2023-04-06T00:38:55;100492.13;;;-0.59;64.21
77227;BME280;66234;47.642;19.144;2023-04-06T00:41:57;100491.81;;;-0.66;64.08
77227;BME280;66234;47.642;19.144;2023-04-06T00:45:01;100494.19;;;-0.63;63.49
77227;BME280;66234;47.642;19.144;2023-04-06T00:48:04;100488.06;;;-0.73;64.31
77227;BME280;66234;47.642;19.144;2023-04-06T00:51:07;100493.31;;;-0.73;64.74
77227;BME280;66234;47.642;19.144;2023-04-06T00:54:10;100491.44;;;-0.82;64.89
77227;BME280;66234;47.642;19.144;2023-04-06T00:57:14;100489.47;;;-0.89;64.72
77227;BME280;66234;47.642;19.144;2023-04-06T01:00:18;100495.94;;;-0.93;65.54
77227;BME280;66234;47.642;19.144;2023-04-06T01:03:23;100496.06;;;-0.95;64.96
77227;BME280;66234;47.642;19.144;2023-04-06T01:06:26;100489.13;;;-0.96;65.90
77227;BME280;66234;47.642;19.144;2023-04-06T01:09:36;100487.09;;;-0.92;66.52
77227;BME280;66234;47.642;19.144;2023-04-06T01:12:46;100494.63;;;-0.99;66.26
77227;BME280;66234;47.642;19.144;2023-04-06T01:15:57;100491.84;;;-1.07;66.63
77227;BME280;66234;47.642;19.144;2023-04-06T01:19:08;100493.88;;;-1.10;67.55
77227;BME280;66234;47.642;19.144;2023-04-06T01:22:18;100493.28;;;-1.14;67.29
77227;BME280;66234;47.642;19.144;2023-04-06T01:25:35;100491.38;;;-1.12;67.53
77227;BME280;66234;47.642;19.144;2023-04-06T01:28:42;100496.03;;;-1.15;68.25
77227;BME280;66234;47.642;19.144;2023-04-06T01:31:57;100489.69;;;-1.13;67.58
77227;BME280;66234;47.642;19.144;2023-04-06T01:35:00;100492.09;;;-1.10;68.74
77227;BME280;66234;47.642;19.144;2023-04-06T01:38:05;100491.59;;;-1.04;67.94
77227;BME280;66234;47.642;19.144;2023-04-06T01:41:10;100489.53;;;-1.00;68.42
77227;BME280;66234;47.642;19.144;2023-04-06T01:44:22;100489.91;;;-1.05;68.67
77227;BME280;66234;47.642;19.144;2023-04-06T01:47:36;100484.22;;;-1.10;68.48
77227;BME280;66234;47.642;19.144;2023-04-06T01:50:39;100477.09;;;-1.19;69.22
77227;BME280;66234;47.642;19.144;2023-04-06T01:53:44;100481.16;;;-1.15;69.05
77227;BME280;66234;47.642;19.144;2023-04-06T01:56:47;100479.09;;;-1.11;68.94
77227;BME280;66234;47.642;19.144;2023-04-06T02:00:14;100474.16;;;-1.05;68.41
77227;BME280;66234;47.642;19.144;2023-04-06T02:03:25;100465.34;;;-1.04;68.06
77227;BME280;66234;47.642;19.144;2023-04-06T02:06:37;100470.41;;;-1.12;68.95
77227;BME280;66234;47.642;19.144;2023-04-06T02:09:42;100465.97;;;-1.11;68.63
77227;BME280;66234;47.642;19.144;2023-04-06T02:12:52;100468.22;;;-1.07;69.33
77227;BME280;66234;47.642;19.144;2023-04-06T02:16:00;100470.97;;;-1.08;69.55
77227;BME280;66234;47.642;19.144;2023-04-06T02:19:04;100458.09;;;-1.11;70.07
77227;BME280;66234;47.642;19.144;2023-04-06T02:22:06;100461.09;;;-1.16;69.66
77227;BME280;66234;47.642;19.144;2023-04-06T02:25:09;100448.97;;;-1.17;68.44
77227;BME280;66234;47.642;19.144;2023-04-06T02:28:13;100451.97;;;-1.21;70.12
77227;BME280;66234;47.642;19.144;2023-04-06T02:31:17;100455.94;;;-1.27;68.78
77227;BME280;66234;47.642;19.144;2023-04-06T02:34:20;100443.75;;;-1.28;68.85
77227;BME280;66234;47.642;19.144;2023-04-06T02:37:26;100451.75;;;-1.29;70.53
77227;BME280;66234;47.642;19.144;2023-04-06T02:40:28;100449.34;;;-1.21;69.68
77227;BME280;66234;47.642;19.144;2023-04-06T02:43:35;100454.75;;;-1.34;70.29
77227;BME280;66234;47.642;19.144;2023-04-06T02:46:47;100448.00;;;-1.36;70.51
77227;BME280;66234;47.642;19.144;2023-04-06T02:49:50;100449.31;;;-1.42;70.57
77227;BME280;66234;47.642;19.144;2023-04-06T02:52:53;100443.69;;;-1.37;69.96
77227;BME280;66234;47.642;19.144;2023-04-06T02:55:56;100442.03;;;-1.38;70.51
77227;BME280;66234;47.642;19.144;2023-04-06T02:59:05;100439.47;;;-1.49;71.26
77227;BME280;66234;47.642;19.144;2023-04-06T03:02:09;100434.84;;;-1.57;70.98
77227;BME280;66234;47.642;19.144;2023-04-06T03:05:11;100437.47;;;-1.57;70.76
77227;BME280;66234;47.642;19.144;2023-04-06T03:08:17;100440.09;;;-1.57;71.63
77227;BME280;66234;47.642;19.144;2023-04-06T03:11:21;100450.13;;;-1.62;71.55
77227;BME280;66234;47.642;19.144;2023-04-06T03:14:27;100436.31;;;-1.64;71.17
77227;BME280;66234;47.642;19.144;2023-04-06T03:17:31;100435.34;;;-1.63;70.61
77227;BME280;66234;47.642;19.144;2023-04-06T03:20:38;100436.13;;;-1.72;71.85
77227;BME280;66234;47.642;19.144;2023-04-06T03:23:41;100440.63;;;-1.74;71.49
77227;BME280;66234;47.642;19.144;2023-04-06T03:26:44;100434.00;;;-1.78;71.90
77227;BME280;66234;47.642;19.144;2023-04-06T03:29:47;100441.97;;;-1.80;73.47
77227;BME280;66234;47.642;19.144;2023-04-06T03:32:56;100445.41;;;-1.79;71.81
77227;BME280;66234;47.642;19.144;2023-04-06T03:36:03;100439.59;;;-1.83;71.74
77227;BME280;66234;47.642;19.144;2023-04-06T03:39:09;100443.75;;;-1.80;72.39
77227;BME280;66234;47.642;19.144;2023-04-06T03:42:16;100443.28;;;-1.85;71.45
77227;BME280;66234;47.642;19.144;2023-04-06T03:45:26;100441.97;;;-1.80;72.30
77227;BME280;66234;47.642;19.144;2023-04-06T03:48:29;100439.94;;;-1.87;72.08
77227;BME280;66234;47.642;19.144;2023-04-06T03:51:37;100440.19;;;-1.90;72.68
77227;BME280;66234;47.642;19.144;2023-04-06T03:54:40;100437.00;;;-1.83;71.96
77227;BME280;66234;47.642;19.144;2023-04-06T03:57:45;100438.66;;;-1.82;71.99
77227;BME280;66234;47.642;19.144;2023-04-06T04:00:49;100429.81;;;-1.81;71.81
77227;BME280;66234;47.642;19.144;2023-04-06T04:03:53;100427.91;;;-1.79;72.63
77227;BME280;66234;47.642;19.144;2023-04-06T04:06:56;100433.31;;;-1.91;72.17
77227;BME280;66234;47.642;19.144;2023-04-06T04:09:58;100427.69;;;-1.87;72.13
77227;BME280;66234;47.642;19.144;2023-04-06T04:13:02;100430.34;;;-1.98;71.67
77227;BME280;66234;47.642;19.144;2023-04-06T04:16:05;100429.28;;;-1.95;72.53
77227;BME280;66234;47.642;19.144;2023-04-06T04:19:08;100432.84;;;-1.96;72.13
77227;BME280;66234;47.642;19.144;2023-04-06T04:22:11;100424.09;;;-1.86;72.39
77227;BME280;66234;47.642;19.144;2023-04-06T04:25:16;100420.44;;;-1.83;72.38
77227;BME280;66234;47.642;19.144;2023-04-06T04:28:22;100417.56;;;-1.80;72.15
77227;BME280;66234;47.642;19.144;2023-04-06T04:31:28;100410.16;;;-1.75;71.96
77227;BME280;66234;47.642;19.144;2023-04-06T04:34:35;100410.78;;;-1.62;71.57
77227;BME280;66234;47.642;19.144;2023-04-06T04:37:40;100408.88;;;-1.60;72.08
77227;BME280;66234;47.642;19.144;2023-04-06T04:40:44;100416.75;;;-1.60;71.36
77227;BME280;66234;47.642;19.144;2023-04-06T04:43:47;100420.78;;;-1.56;71.82
77227;BME280;66234;47.642;19.144;2023-04-06T04:46:55;100420.78;;;-1.56;71.74
77227;BME280;66234;47.642;19.144;2023-04-06T04:50:08;100421.81;;;-1.47;72.23
77227;BME280;66234;47.642;19.144;2023-04-06T04:53:15;100415.22;;;-1.42;70.73
77227;BME280;66234;47.642;19.144;2023-04-06T04:56:19;100413.72;;;-1.24;70.47
77227;BME280;66234;47.642;19.144;2023-04-06T04:59:26;100417.09;;;-1.12;71.10
77227;BME280;66234;47.642;19.144;2023-04-06T05:02:37;100411.19;;;-1.05;70.16
77227;BME280;66234;47.642;19.144;2023-04-06T05:05:54;100405.47;;;-0.89;69.75
77227;BME280;66234;47.642;19.144;2023-04-06T05:08:59;100395.41;;;-0.84;69.22
77227;BME280;66234;47.642;19.144;2023-04-06T05:12:05;100395.72;;;-0.78;69.66
77227;BME280;66234;47.642;19.144;2023-04-06T05:15:13;100397.31;;;-0.66;68.95
77227;BME280;66234;47.642;19.144;2023-04-06T05:18:17;100392.22;;;-0.58;68.88
77227;BME280;66234;47.642;19.144;2023-04-06T05:21:20;100390.75;;;-0.41;69.12
77227;BME280;66234;47.642;19.144;2023-04-06T05:24:37;100391.03;;;-0.35;67.57
77227;BME280;66234;47.642;19.144;2023-04-06T05:27:41;100398.97;;;-0.25;68.31
77227;BME280;66234;47.642;19.144;2023-04-06T05:30:59;100389.28;;;-0.15;67.68
77227;BME280;66234;47.642;19.144;2023-04-06T05:34:08;100389.31;;;-0.06;66.88
77227;BME280;66234;47.642;19.144;2023-04-06T05:37:13;100383.78;;;0.07;66.93
77227;BME280;66234;47.642;19.144;2023-04-06T05:40:15;100377.28;;;0.21;67.52
77227;BME280;66234;47.642;19.144;2023-04-06T05:43:19;100374.66;;;0.30;66.58
77227;BME280;66234;47.642;19.144;2023-04-06T05:46:29;100378.94;;;0.41;67.38
77227;BME280;66234;47.642;19.144;2023-04-06T05:49:34;100371.31;;;0.47;67.25
77227;BME280;66234;47.642;19.144;2023-04-06T05:52:38;100365.63;;;0.61;66.81
77227;BME280;66234;47.642;19.144;2023-04-06T05:55:40;100361.31;;;0.70;65.99
77227;BME280;66234;47.642;19.144;2023-04-06T05:58:54;100359.50;;;0.80;66.27
77227;BME280;66234;47.642;19.144;2023-04-06T06:02:02;100355.59;;;0.93;65.70
77227;BME280;66234;47.642;19.144;2023-04-06T06:05:08;100358.34;;;1.01;63.28
77227;BME280;66234;47.642;19.144;2023-04-06T06:08:14;100361.06;;;1.19;63.07
77227;BME280;66234;47.642;19.144;2023-04-06T06:11:17;100355.75;;;1.28;62.29
77227;BME280;66234;47.642;19.144;2023-04-06T06:14:20;100354.03;;;1.37;60.42
77227;BME280;66234;47.642;19.144;2023-04-06T06:17:24;100348.75;;;1.64;60.32
77227;BME280;66234;47.642;19.144;2023-04-06T06:20:27;100343.56;;;1.72;60.58
77227;BME280;66234;47.642;19.144;2023-04-06T06:23:32;100341.31;;;1.77;60.85
77227;BME280;66234;47.642;19.144;2023-04-06T06:26:34;100328.91;;;1.87;59.17
77227;BME280;66234;47.642;19.144;2023-04-06T06:29:40;100331.91;;;2.10;58.96
77227;BME280;66234;47.642;19.144;2023-04-06T06:32:43;100330.78;;;2.30;57.85
77227;BME280;66234;47.642;19.144;2023-04-06T06:35:46;100326.03;;;2.33;56.20
77227;BME280;66234;47.642;19.144;2023-04-06T06:38:49;100321.63;;;2.42;56.54
77227;BME280;66234;47.642;19.144;2023-04-06T06:41:55;100322.16;;;2.45;55.42
77227;BME280;66234;47.642;19.144;2023-04-06T06:45:18;100324.25;;;2.85;55.23
77227;BME280;66234;47.642;19.144;2023-04-06T06:48:22;100319.91;;;2.76;54.86
77227;BME280;66234;47.642;19.144;2023-04-06T06:51:25;100318.25;;;2.75;54.80
77227;BME280;66234;47.642;19.144;2023-04-06T06:54:28;100323.88;;;3.05;55.17
77227;BME280;66234;47.642;19.144;2023-04-06T06:57:31;100313.00;;;3.08;52.44
77227;BME280;66234;47.642;19.144;2023-04-06T07:00:34;100311.94;;;3.35;52.00
77227;BME280;66234;47.642;19.144;2023-04-06T07:03:39;100311.19;;;3.51;49.29
77227;BME280;66234;47.642;19.144;2023-04-06T07:06:41;100309.38;;;3.59;48.98
77227;BME280;66234;47.642;19.144;2023-04-06T07:09:44;100303.44;;;3.57;46.17
77227;BME280;66234;47.642;19.144;2023-04-06T07:12:47;100302.63;;;3.65;46.46
77227;BME280;66234;47.642;19.144;2023-04-06T07:15:50;100305.28;;;3.65;45.40
77227;BME280;66234;47.642;19.144;2023-04-06T07:18:53;100305.16;;;3.74;45.47
77227;BME280;66234;47.642;19.144;2023-04-06T07:21:56;100305.50;;;4.03;44.44
77227;BME280;66234;47.642;19.144;2023-04-06T07:24:59;100301.06;;;4.28;43.34
77227;BME280;66234;47.642;19.144;2023-04-06T07:28:02;100303.69;;;4.52;43.11
77227;BME280;66234;47.642;19.144;2023-04-06T07:31:06;100296.09;;;4.25;43.64
77227;BME280;66234;47.642;19.144;2023-04-06T07:34:09;100298.75;;;4.41;43.97
77227;BME280;66234;47.642;19.144;2023-04-06T07:37:13;100296.72;;;4.67;42.31
77227;BME280;66234;47.642;19.144;2023-04-06T07:40:17;100293.06;;;4.68;41.71
77227;BME280;66234;47.642;19.144;2023-04-06T07:43:20;100298.69;;;4.81;42.16
77227;BME280;66234;47.642;19.144;2023-04-06T07:46:24;100294.19;;;4.81;41.99
77227;BME280;66234;47.642;19.144;2023-04-06T07:49:28;100300.47;;;4.96;41.41
77227;BME280;66234;47.642;19.144;2023-04-06T07:52:31;100296.78;;;5.14;41.09
77227;BME280;66234;47.642;19.144;2023-04-06T07:55:40;100293.13;;;5.15;40.85
77227;BME280;66234;47.642;19.144;2023-04-06T07:58:42;100292.38;;;4.82;41.69
77227;BME280;66234;47.642;19.144;2023-04-06T08:01:45;100294.69;;;4.85;41.59
77227;BME280;66234;47.642;19.144;2023-04-06T08:04:48;100289.03;;;5.04;41.29
77227;BME280;66234;47.642;19.144;2023-04-06T08:07:50;100287.31;;;5.11;41.02
77227;BME280;66234;47.642;19.144;2023-04-06T08:10:53;100285.84;;;5.47;39.90
77227;BME280;66234;47.642;19.144;2023-04-06T08:13:56;100278.13;;;5.38;40.00
77227;BME280;66234;47.642;19.144;2023-04-06T08:16:59;100282.69;;;5.52;40.05
77227;BME280;66234;47.642;19.144;2023-04-06T08:20:02;100273.53;;;5.85;40.04
77227;BME280;66234;47.642;19.144;2023-04-06T08:23:06;100275.41;;;5.84;39.67
77227;BME280;66234;47.642;19.144;2023-04-06T08:26:12;100262.00;;;5.47;40.11
77227;BME280;66234;47.642;19.144;2023-04-06T08:29:14;100270.16;;;5.68;40.75
77227;BME280;66234;47.642;19.144;2023-04-06T08:32:18;100278.06;;;5.76;39.19
77227;BME280;66234;47.642;19.144;2023-04-06T08:35:21;100271.81;;;5.69;39.61
77227;BME280;66234;47.642;19.144;2023-04-06T08:38:23;100263.09;;;5.83;38.16
77227;BME280;66234;47.642;19.144;2023-04-06T08:41:27;100259.75;;;6.12;37.85
77227;BME280;66234;47.642;19.144;2023-04-06T08:44:31;100258.03;;;6.56;36.62
77227;BME280;66234;47.642;19.144;2023-04-06T08:47:35;100255.38;;;6.56;36.07
77227;BME280;66234;47.642;19.144;2023-04-06T08:50:40;100261.03;;;6.53;36.15
77227;BME280;66234;47.642;19.144;2023-04-06T08:53:43;100266.16;;;6.54;35.98
77227;BME280;66234;47.642;19.144;2023-04-06T08:56:47;100263.84;;;6.74;35.29
77227;BME280;66234;47.642;19.144;2023-04-06T08:59:51;100254.03;;;6.37;35.57
77227;BME280;66234;47.642;19.144;2023-04-06T09:02:54;100263.09;;;6.80;35.42
77227;BME280;66234;47.642;19.144;2023-04-06T09:05:58;100265.91;;;6.64;35.65
77227;BME280;66234;47.642;19.144;2023-04-06T09:09:02;100265.66;;;7.03;35.09
77227;BME280;66234;47.642;19.144;2023-04-06T09:12:05;100258.78;;;7.08;34.88
77227;BME280;66234;47.642;19.144;2023-04-06T09:15:21;100257.72;;;7.53;34.36
77227;BME280;66234;47.642;19.144;2023-04-06T09:18:30;100244.47;;;7.24;34.82
77227;BME280;66234;47.642;19.144;2023-04-06T09:21:34;100242.53;;;7.68;34.73
77227;BME280;66234;47.642;19.144;2023-04-06T09:24:46;100244.03;;;7.56;34.29
77227;BME280;66234;47.642;19.144;2023-04-06T09:27:59;100250.00;;;7.08;35.68
77227;BME280;66234;47.642;19.144;2023-04-06T09:31:02;100238.16;;;7.81;34.23
77227;BME280;66234;47.642;19.144;2023-04-06T09:34:05;100235.91;;;7.99;35.02
77227;BME280;66234;47.642;19.144;2023-04-06T09:37:15;100238.75;;;7.41;34.04
77227;BME280;66234;47.642;19.144;2023-04-06T09:40:19;100229.41;;;7.87;33.56
77227;BME280;66234;47.642;19.144;2023-04-06T09:43:28;100234.31;;;8.26;33.58
77227;BME280;66234;47.642;19.144;2023-04-06T09:46:32;100237.22;;;8.31;33.00
77227;BME280;66234;47.642;19.144;2023-04-06T09:49:57;100238.53;;;8.69;32.45
77227;BME280;66234;47.642;19.144;2023-04-06T09:53:01;100224.19;;;8.70;31.67
77227;BME280;66234;47.642;19.144;2023-04-06T09:56:07;100226.69;;;8.44;32.95
77227;BME280;66234;47.642;19.144;2023-04-06T10:00:11;100228.81;;;8.55;32.57
77227;BME280;66234;47.642;19.144;2023-04-06T10:06:03;100226.56;;;8.59;32.45
77227;BME280;66234;47.642;19.144;2023-04-06T10:09:07;100219.34;;;8.04;33.94
77227;BME280;66234;47.642;19.144;2023-04-06T10:12:12;100215.69;;;7.84;34.01
77227;BME280;66234;47.642;19.144;2023-04-06T10:15:16;100207.47;;;8.06;32.84
77227;BME280;66234;47.642;19.144;2023-04-06T10:18:22;100213.63;;;8.28;33.73
77227;BME280;66234;47.642;19.144;2023-04-06T10:21:27;100208.75;;;8.31;32.16
77227;BME280;66234;47.642;19.144;2023-04-06T10:24:30;100211.69;;;9.05;31.68
77227;BME280;66234;47.642;19.144;2023-04-06T10:27:33;100202.97;;;9.37;30.12
77227;BME280;66234;47.642;19.144;2023-04-06T10:30:42;100208.00;;;8.72;31.99
77227;BME280;66234;47.642;19.144;2023-04-06T10:33:56;100192.72;;;9.40;32.26
77227;BME280;66234;47.642;19.144;2023-04-06T10:37:10;100188.25;;;9.67;30.38
77227;BME280;66234;47.642;19.144;2023-04-06T10:40:24;100184.28;;;9.30;30.79
77227;BME280;66234;47.642;19.144;2023-04-06T10:43:33;100181.91;;;9.68;30.51
77227;BME280;66234;47.642;19.144;2023-04-06T10:46:37;100187.81;;;9.37;31.31
77227;BME280;66234;47.642;19.144;2023-04-06T10:49:40;100188.03;;;9.55;30.40
77227;BME280;66234;47.642;19.144;2023-04-06T10:52:45;100185.19;;;9.63;29.99
77227;BME280;66234;47.642;19.144;2023-04-06T10:55:52;100179.66;;;10.04;30.69
77227;BME280;66234;47.642;19.144;2023-04-06T10:58:55;100176.78;;;9.79;29.26
77227;BME280;66234;47.642;19.144;2023-04-06T11:02:01;100178.72;;;9.25;29.28
77227;BME280;66234;47.642;19.144;2023-04-06T11:05:04;100168.16;;;9.84;29.42
77227;BME280;66234;47.642;19.144;2023-04-06T11:08:07;100167.56;;;10.01;29.69
77227;BME280;66234;47.642;19.144;2023-04-06T11:11:11;100166.94;;;10.06;27.58
77227;BME280;66234;47.642;19.144;2023-04-06T11:14:20;100171.03;;;9.89;27.99
77227;BME280;66234;47.642;19.144;2023-04-06T11:17:30;100171.88;;;10.42;28.35
77227;BME280;66234;47.642;19.144;2023-04-06T11:20:34;100160.34;;;10.48;28.51
77227;BME280;66234;47.642;19.144;2023-04-06T11:23:37;100159.56;;;10.28;27.69
77227;BME280;66234;47.642;19.144;2023-04-06T11:29:46;100152.31;;;10.54;27.29
77227;BME280;66234;47.642;19.144;2023-04-06T11:32:49;100158.09;;;10.38;26.84
77227;BME280;66234;47.642;19.144;2023-04-06T11:35:51;100151.31;;;9.90;28.17
77227;BME280;66234;47.642;19.144;2023-04-06T11:38:56;100146.38;;;9.93;28.08
77227;BME280;66234;47.642;19.144;2023-04-06T11:42:02;100149.44;;;9.64;29.44
77227;BME280;66234;47.642;19.144;2023-04-06T11:45:15;100144.94;;;9.58;28.51
77227;BME280;66234;47.642;19.144;2023-04-06T11:48:18;100144.34;;;9.69;28.39
77227;BME280;66234;47.642;19.144;2023-04-06T11:51:22;100134.06;;;9.60;29.00
77227;BME280;66234;47.642;19.144;2023-04-06T11:54:35;100135.72;;;9.80;30.40
77227;BME280;66234;47.642;19.144;2023-04-06T11:57:39;100129.16;;;9.96;29.12
77227;BME280;66234;47.642;19.144;2023-04-06T12:00:43;100126.25;;;10.04;29.42
77227;BME280;66234;47.642;19.144;2023-04-06T12:03:49;100128.94;;;10.11;29.21
77227;BME280;66234;47.642;19.144;2023-04-06T12:06:55;100129.38;;;10.21;28.93
77227;BME280;66234;47.642;19.144;2023-04-06T12:09:59;100126.56;;;10.73;29.25
77227;BME280;66234;47.642;19.144;2023-04-06T12:13:02;100130.66;;;11.26;28.02
77227;BME280;66234;47.642;19.144;2023-04-06T12:16:05;100118.53;;;11.54;27.28
77227;BME280;66234;47.642;19.144;2023-04-06T12:19:08;100114.50;;;11.39;27.80
77227;BME280;66234;47.642;19.144;2023-04-06T12:22:10;100119.97;;;11.26;27.62
77227;BME280;66234;47.642;19.144;2023-04-06T12:25:13;100121.91;;;11.06;27.30
77227;BME280;66234;47.642;19.144;2023-04-06T12:28:17;100116.84;;;10.85;27.64
77227;BME280;66234;47.642;19.144;2023-04-06T12:31:22;100121.91;;;11.06;27.74
77227;BME280;66234;47.642;19.144;2023-04-06T12:34:25;100111.81;;;11.08;28.18
77227;BME280;66234;47.642;19.144;2023-04-06T12:37:28;100105.47;;;11.02;27.94
77227;BME280;66234;47.642;19.144;2023-04-06T12:40:30;100108.97;;;11.34;27.38
77227;BME280;66234;47.642;19.144;2023-04-06T12:43:40;100101.78;;;11.34;26.65
77227;BME280;66234;47.642;19.144;2023-04-06T12:46:43;100112.66;;;11.02;27.06
77227;BME280;66234;47.642;19.144;2023-04-06T12:49:45;100113.38;;;10.78;28.83
77227;BME280;66234;47.642;19.144;2023-04-06T12:52:49;100116.63;;;10.86;28.66
77227;BME280;66234;47.642;19.144;2023-04-06T12:55:53;100113.91;;;9.90;31.64
77227;BME280;66234;47.642;19.144;2023-04-06T12:58:56;100116.81;;;9.69;31.76
77227;BME280;66234;47.642;19.144;2023-04-06T13:01:59;100105.28;;;9.68;32.24
77227;BME280;66234;47.642;19.144;2023-04-06T13:05:02;100105.50;;;9.73;32.83
77227;BME280;66234;47.642;19.144;2023-04-06T13:08:05;100105.13;;;10.09;32.65
77227;BME280;66234;47.642;19.144;2023-04-06T13:11:07;100106.94;;;9.82;32.10
77227;BME280;66234;47.642;19.144;2023-04-06T13:14:11;100108.19;;;9.93;32.27
77227;BME280;66234;47.642;19.144;2023-04-06T13:17:13;100107.16;;;10.07;33.32
77227;BME280;66234;47.642;19.144;2023-04-06T13:20:16;100112.50;;;10.20;32.02
77227;BME280;66234;47.642;19.144;2023-04-06T13:23:20;100104.50;;;10.00;32.46
77227;BME280;66234;47.642;19.144;2023-04-06T13:26:22;100098.31;;;9.87;33.05
77227;BME280;66234;47.642;19.144;2023-04-06T13:29:25;100096.25;;;9.82;33.38
77227;BME280;66234;47.642;19.144;2023-04-06T13:32:28;100098.47;;;9.20;35.61
77227;BME280;66234;47.642;19.144;2023-04-06T13:35:31;100085.78;;;9.35;35.33
77227;BME280;66234;47.642;19.144;2023-04-06T13:38:34;100084.16;;;10.13;33.94
77227;BME280;66234;47.642;19.144;2023-04-06T13:41:36;100071.44;;;10.15;32.25
77227;BME280;66234;47.642;19.144;2023-04-06T13:44:39;100082.09;;;9.95;32.22
77227;BME280;66234;47.642;19.144;2023-04-06T13:47:41;100079.84;;;10.12;32.44
77227;BME280;66234;47.642;19.144;2023-04-06T13:50:44;100079.09;;;10.55;33.36
77227;BME280;66234;47.642;19.144;2023-04-06T13:53:48;100083.66;;;10.55;33.90
77227;BME280;66234;47.642;19.144;2023-04-06T13:56:54;100068.00;;;10.58;31.99
77227;BME280;66234;47.642;19.144;2023-04-06T13:59:57;100070.72;;;10.45;32.37
77227;BME280;66234;47.642;19.144;2023-04-06T14:03:00;100067.84;;;10.40;32.33
77227;BME280;66234;47.642;19.144;2023-04-06T14:06:12;100071.34;;;10.47;32.34
77227;BME280;66234;47.642;19.144;2023-04-06T14:09:19;100076.06;;;10.45;32.33
77227;BME280;66234;47.642;19.144;2023-04-06T14:12:22;100071.94;;;10.43;32.48
77227;BME280;66234;47.642;19.144;2023-04-06T14:15:25;100071.78;;;10.31;32.05
77227;BME280;66234;47.642;19.144;2023-04-06T14:18:27;100073.84;;;10.23;32.79
77227;BME280;66234;47.642;19.144;2023-04-06T14:21:33;100080.44;;;10.00;33.95
77227;BME280;66234;47.642;19.144;2023-04-06T14:24:36;100085.41;;;9.77;34.16
77227;BME280;66234;47.642;19.144;2023-04-06T14:27:39;100094.38;;;9.24;35.89
77227;BME280;66234;47.642;19.144;2023-04-06T14:30:41;100080.00;;;9.32;36.43
77227;BME280;66234;47.642;19.144;2023-04-06T14:33:44;100079.19;;;9.31;36.76
77227;BME280;66234;47.642;19.144;2023-04-06T14:36:48;100081.19;;;8.97;38.15
77227;BME280;66234;47.642;19.144;2023-04-06T14:39:50;100083.59;;;8.85;38.93
77227;BME280;66234;47.642;19.144;2023-04-06T14:42:53;100096.53;;;8.41;39.14
77227;BME280;66234;47.642;19.144;2023-04-06T14:46:01;100097.38;;;8.20;39.70
77227;BME280;66234;47.642;19.144;2023-04-06T14:49:04;100103.44;;;8.29;39.96
77227;BME280;66234;47.642;19.144;2023-04-06T14:52:07;100095.72;;;8.47;39.77
77227;BME280;66234;47.642;19.144;2023-04-06T14:55:09;100109.09;;;8.54;40.82
77227;BME280;66234;47.642;19.144;2023-04-06T14:58:12;100112.66;;;8.05;41.77
77227;BME280;66234;47.642;19.144;2023-04-06T15:01:15;100100.97;;;7.79;42.57
77227;BME280;66234;47.642;19.144;2023-04-06T15:04:17;100114.91;;;7.60;43.69
77227;BME280;66234;47.642;19.144;2023-04-06T15:07:20;100107.13;;;7.79;43.36
77227;BME280;66234;47.642;19.144;2023-04-06T15:10:23;100110.06;;;7.63;45.32
77227;BME280;66234;47.642;19.144;2023-04-06T15:13:25;100127.03;;;7.41;45.98
77227;BME280;66234;47.642;19.144;2023-04-06T15:16:28;100114.88;;;7.32;46.73
77227;BME280;66234;47.642;19.144;2023-04-06T15:19:34;100113.91;;;7.19;47.13
77227;BME280;66234;47.642;19.144;2023-04-06T15:22:37;100119.06;;;7.06;47.83
77227;BME280;66234;47.642;19.144;2023-04-06T15:25:40;100123.88;;;6.96;48.35
77227;BME280;66234;47.642;19.144;2023-04-06T15:28:45;100123.91;;;6.81;48.53
77227;BME280;66234;47.642;19.144;2023-04-06T15:31:47;100121.44;;;6.80;48.70
77227;BME280;66234;47.642;19.144;2023-04-06T15:34:50;100118.66;;;6.88;48.91
77227;BME280;66234;47.642;19.144;2023-04-06T15:37:53;100128.53;;;7.08;48.40
77227;BME280;66234;47.642;19.144;2023-04-06T15:40:55;100122.97;;;6.89;48.88
77227;BME280;66234;47.642;19.144;2023-04-06T15:43:58;100123.78;;;7.04;48.51
77227;BME280;66234;47.642;19.144;2023-04-06T15:47:00;100123.22;;;7.08;48.42
77227;BME280;66234;47.642;19.144;2023-04-06T15:50:04;100120.19;;;6.97;48.16
77227;BME280;66234;47.642;19.144;2023-04-06T15:53:07;100118.28;;;7.05;48.41
77227;BME280;66234;47.642;19.144;2023-04-06T15:56:10;100118.41;;;7.18;47.72
77227;BME280;66234;47.642;19.144;2023-04-06T15:59:15;100116.16;;;7.36;47.09
77227;BME280;66234;47.642;19.144;2023-04-06T16:02:18;100125.19;;;7.63;46.47
77227;BME280;66234;47.642;19.144;2023-04-06T16:05:21;100114.50;;;7.56;46.55
77227;BME280;66234;47.642;19.144;2023-04-06T16:08:24;100111.06;;;7.41;48.02